createdAt,value
2022-08-19T00:02:07.983Z,13.15
2022-08-19T00:06:10.910Z,12.73
2022-08-19T00:10:15.430Z,14.93
2022-08-19T00:14:18.397Z,13.00
2022-08-19T00:18:20.705Z,13.85
2022-08-19T00:22:23.103Z,14.10
2022-08-19T00:26:29.493Z,14.27
2022-08-19T00:30:31.825Z,14.93
2022-08-19T00:34:37.563Z,14.63
2022-08-19T00:38:44.054Z,14.45
2022-08-19T00:42:46.416Z,15.55
2022-08-19T00:46:55.177Z,13.30
2022-08-19T00:51:02.310Z,14.93
2022-08-19T00:55:11.227Z,14.70
2022-08-19T00:59:15.256Z,14.93
2022-08-19T01:03:55.151Z,15.88
2022-08-19T01:08:03.521Z,14.95
2022-08-19T01:12:12.391Z,15.63
2022-08-19T01:16:20.521Z,14.15
2022-08-19T01:20:24.692Z,15.35
2022-08-19T01:24:27.291Z,16.25
2022-08-19T01:28:39.837Z,14.45
2022-08-19T01:32:44.510Z,14.73
2022-08-19T01:36:48.639Z,16.67
2022-08-19T01:40:51.084Z,15.18
2022-08-19T01:44:53.532Z,16.33
2022-08-19T01:48:56.211Z,16.77
2022-08-19T01:53:06.335Z,16.25
2022-08-19T01:57:15.211Z,16.20
2022-08-19T02:01:18.005Z,15.10
2022-08-19T02:05:22.151Z,14.80
2022-08-19T02:09:24.285Z,16.55
2022-08-19T02:13:27.461Z,14.32
2022-08-19T02:17:30.919Z,16.60
2022-08-19T02:21:34.559Z,16.33
2022-08-19T02:25:37.155Z,15.82
2022-08-19T02:29:39.529Z,16.10
2022-08-19T02:33:42.163Z,15.82
2022-08-19T02:38:03.726Z,16.05
2022-08-19T02:42:06.983Z,15.00
2022-08-19T02:46:30.455Z,15.35
2022-08-19T02:50:33.353Z,16.10
2022-08-19T02:54:35.884Z,17.92
2022-08-19T02:58:38.144Z,16.83
2022-08-19T03:02:42.245Z,14.02
2022-08-19T03:06:48.325Z,15.25
2022-08-19T03:10:50.590Z,15.68
2022-08-19T03:14:53.976Z,19.45
2022-08-19T03:19:01.070Z,16.80
2022-08-19T03:23:03.239Z,18.38
2022-08-19T03:27:06.182Z,14.23
2022-08-19T03:31:42.005Z,15.52
2022-08-19T03:35:39.994Z,17.63
2022-08-19T03:39:43.411Z,15.40
2022-08-19T03:43:49.844Z,16.90
2022-08-19T03:47:51.942Z,16.88
2022-08-19T03:51:56.155Z,15.57
2022-08-19T03:56:00.755Z,16.67
2022-08-19T04:00:13.908Z,16.15
2022-08-19T04:04:16.166Z,15.63
2022-08-19T04:08:21.271Z,13.38
2022-08-19T04:12:23.446Z,15.05
2022-08-19T04:16:34.953Z,14.85
2022-08-19T04:20:46.300Z,15.77
2022-08-19T04:24:48.644Z,15.20
2022-08-19T04:28:52.728Z,14.55
2022-08-19T04:32:55.153Z,14.45
2022-08-19T04:36:59.777Z,14.70
2022-08-19T04:41:23.436Z,13.05
2022-08-19T04:45:25.716Z,13.63
2022-08-19T04:49:28.915Z,13.55
2022-08-19T04:53:37.918Z,13.65
2022-08-19T04:57:41.672Z,12.57
2022-08-19T05:01:44.902Z,12.90
2022-08-19T05:05:49.770Z,12.80
2022-08-19T05:09:57.862Z,11.55
2022-08-19T05:14:01.947Z,12.05
2022-08-19T05:18:22.711Z,11.95
2022-08-19T05:22:35.723Z,10.68
2022-08-19T05:26:42.605Z,11.48
2022-08-19T05:30:47.551Z,10.20
2022-08-19T05:34:50.327Z,10.95
2022-08-19T05:38:54.389Z,10.15
2022-08-19T05:42:57.220Z,11.13
2022-08-19T05:47:01.210Z,11.07
2022-08-19T05:51:07.565Z,12.02
2022-08-19T05:55:10.517Z,11.40
2022-08-19T05:59:12.669Z,10.15
2022-08-19T06:03:15.145Z,10.18
2022-08-19T06:07:18.318Z,8.95
2022-08-19T06:11:25.128Z,9.48
2022-08-19T06:15:28.544Z,9.95
2022-08-19T06:19:32.266Z,9.07
2022-08-19T06:23:34.406Z,9.38
2022-08-19T06:27:42.002Z,10.52
2022-08-19T06:31:53.184Z,9.00
2022-08-19T06:35:55.458Z,10.00
2022-08-19T06:39:57.645Z,10.50
2022-08-19T06:43:59.950Z,9.95
2022-08-19T06:48:02.086Z,9.20
2022-08-19T06:52:06.279Z,10.32
2022-08-19T06:56:08.332Z,9.70
2022-08-19T07:00:17.124Z,9.93
2022-08-19T07:04:26.175Z,9.75
2022-08-19T07:08:29.282Z,10.27
2022-08-19T07:12:37.995Z,9.18
2022-08-19T07:20:45.278Z,9.60
2022-08-19T07:24:51.264Z,9.60
2022-08-19T07:28:54.087Z,10.45
2022-08-19T07:32:57.860Z,10.45
2022-08-19T07:37:00.642Z,9.30
2022-08-19T07:41:02.948Z,10.38
2022-08-19T07:45:07.288Z,10.05
2022-08-19T07:49:14.503Z,10.13
2022-08-19T07:53:16.615Z,9.00
2022-08-19T07:57:20.120Z,9.63
2022-08-19T08:01:26.940Z,9.65
2022-08-19T08:05:48.156Z,8.57
2022-08-19T08:09:50.736Z,9.00
2022-08-19T08:14:01.221Z,8.55
2022-08-19T08:18:07.895Z,8.40
2022-08-19T08:22:36.366Z,8.45
2022-08-19T08:26:38.699Z,8.80
2022-08-19T08:30:50.757Z,9.00
2022-08-19T08:34:53.565Z,8.95
2022-08-19T08:43:10.874Z,8.45
2022-08-19T08:47:20.027Z,9.88
2022-08-19T08:51:30.871Z,8.55
2022-08-19T08:55:37.894Z,8.70
2022-08-19T08:59:42.896Z,7.97
2022-08-19T09:03:46.524Z,8.88
2022-08-19T09:08:27.804Z,9.07
2022-08-19T09:12:54.450Z,8.73
2022-08-19T09:16:59.288Z,9.15
2022-08-19T09:21:01.430Z,8.93
2022-08-19T09:25:04.470Z,7.60
2022-08-19T09:29:07.942Z,7.63
2022-08-19T09:33:10.378Z,8.23
2022-08-19T09:37:13.356Z,7.85
2022-08-19T09:41:22.750Z,7.93
2022-08-19T09:45:26.241Z,7.97
2022-08-19T09:49:28.298Z,7.63
2022-08-19T09:53:30.550Z,6.90
2022-08-19T09:57:34.196Z,7.70
2022-08-19T10:01:36.686Z,7.95
2022-08-19T10:05:54.645Z,7.53
2022-08-19T10:09:58.704Z,8.27
2022-08-19T10:14:01.719Z,7.15
2022-08-19T10:18:04.099Z,7.25
2022-08-19T10:22:12.198Z,7.28
2022-08-19T10:26:18.077Z,6.67
2022-08-19T10:30:21.739Z,6.85
2022-08-19T10:34:28.665Z,6.65
2022-08-19T10:38:32.413Z,6.85
2022-08-19T10:42:36.253Z,6.75
2022-08-19T10:46:46.055Z,5.90
2022-08-19T10:51:11.515Z,6.25
2022-08-19T10:55:51.774Z,6.20
2022-08-19T10:59:54.188Z,5.72
2022-08-19T11:03:58.419Z,6.50
2022-08-19T11:08:00.575Z,6.88
2022-08-19T11:12:05.224Z,6.22
2022-08-19T11:16:10.980Z,6.00
2022-08-19T11:20:15.364Z,6.13
2022-08-19T11:24:21.235Z,6.68
2022-08-19T11:28:23.226Z,5.75
2022-08-19T11:32:25.665Z,6.05
2022-08-19T11:36:28.534Z,5.93
2022-08-19T11:40:30.776Z,6.43
2022-08-19T11:44:32.850Z,5.38
2022-08-19T11:48:39.954Z,6.30
2022-08-19T11:52:42.110Z,6.05
2022-08-19T11:56:45.511Z,6.05
2022-08-19T12:00:47.682Z,5.72
2022-08-19T12:04:50.566Z,6.00
2022-08-19T12:08:53.040Z,5.88
2022-08-19T12:12:57.046Z,4.97
2022-08-19T12:17:01.291Z,5.88
2022-08-19T12:21:04.640Z,5.45
2022-08-19T12:25:07.290Z,5.85
2022-08-19T12:29:09.660Z,5.50
2022-08-19T12:33:12.150Z,5.57
2022-08-19T12:37:14.854Z,5.10
2022-08-19T12:41:19.418Z,6.10
2022-08-19T12:45:22.681Z,5.35
2022-08-19T12:49:43.583Z,5.82
2022-08-19T12:53:48.396Z,4.57
2022-08-19T12:57:51.598Z,5.07
2022-08-19T13:01:53.909Z,5.35
2022-08-19T13:05:58.075Z,4.88
2022-08-19T13:10:00.384Z,5.28
2022-08-19T13:14:04.074Z,5.47
2022-08-19T13:18:07.896Z,5.05
2022-08-19T13:22:14.931Z,5.47
2022-08-19T13:26:18.102Z,4.55
2022-08-19T13:30:39.721Z,4.47
2022-08-19T13:34:41.981Z,4.60
2022-08-19T13:38:45.926Z,5.70
2022-08-19T13:42:50.634Z,4.55
2022-08-19T13:46:55.065Z,4.88
2022-08-19T13:50:57.343Z,4.90
2022-08-19T13:54:59.775Z,5.22
2022-08-19T13:59:02.643Z,4.65
2022-08-19T14:03:09.147Z,4.93
2022-08-19T14:07:11.736Z,4.78
2022-08-19T14:11:14.111Z,4.80
2022-08-19T14:15:17.144Z,5.22
2022-08-19T14:19:20.625Z,4.72
2022-08-19T14:23:23.358Z,4.85
2022-08-19T14:27:26.579Z,5.05
2022-08-19T14:31:30.886Z,4.88
2022-08-19T14:35:35.687Z,4.72
2022-08-19T14:39:37.927Z,5.25
2022-08-19T14:43:40.385Z,4.20
2022-08-19T14:47:42.691Z,4.70
2022-08-19T14:51:48.090Z,4.40
2022-08-19T14:55:50.415Z,4.85
2022-08-19T14:59:52.554Z,4.97
2022-08-19T15:03:55.738Z,5.10
2022-08-19T15:07:58.105Z,4.78
2022-08-19T15:12:02.659Z,5.65
2022-08-19T15:16:05.323Z,4.93
2022-08-19T15:20:08.714Z,4.55
2022-08-19T15:24:10.967Z,5.20
2022-08-19T15:28:13.810Z,4.60
2022-08-19T15:32:16.101Z,4.78
2022-08-19T15:36:18.374Z,4.50
2022-08-19T15:40:22.151Z,5.57
2022-08-19T15:44:24.745Z,5.13
2022-08-19T15:48:26.838Z,4.20
2022-08-19T15:52:29.193Z,4.78
2022-08-19T15:57:06.894Z,4.72
2022-08-19T16:01:44.497Z,4.82
2022-08-19T16:06:05.367Z,7.18
2022-08-19T16:10:26.184Z,4.53
2022-08-19T16:14:33.019Z,5.30
2022-08-19T16:18:38.635Z,4.72
2022-08-19T16:22:41.010Z,5.15
2022-08-19T16:26:44.222Z,4.38
2022-08-19T16:30:48.803Z,4.60
2022-08-19T16:34:53.980Z,4.27
2022-08-19T16:38:56.260Z,4.60
2022-08-19T16:42:59.157Z,4.55
2022-08-19T16:47:01.336Z,4.57
2022-08-19T16:51:06.897Z,4.95
2022-08-19T16:55:09.103Z,4.28
2022-08-19T16:59:13.871Z,4.38
2022-08-19T17:03:19.937Z,4.32
2022-08-19T17:07:38.043Z,4.35
2022-08-19T17:11:40.056Z,4.57
2022-08-19T17:15:43.948Z,4.60
2022-08-19T17:19:47.785Z,5.00
2022-08-19T17:23:50.638Z,4.65
2022-08-19T17:27:53.644Z,4.45
2022-08-19T17:31:56.216Z,4.22
2022-08-19T17:35:58.244Z,4.80
2022-08-19T17:40:06.791Z,5.30
2022-08-19T17:44:09.507Z,5.68
2022-08-19T17:48:12.626Z,5.25
2022-08-19T17:52:14.802Z,5.07
2022-08-19T17:56:18.318Z,5.35
2022-08-19T18:00:22.115Z,4.85
2022-08-19T18:04:25.949Z,5.10
2022-08-19T18:08:28.918Z,4.90
2022-08-19T18:12:31.615Z,5.65
2022-08-19T18:16:33.923Z,4.75
2022-08-19T18:20:36.223Z,5.70
2022-08-19T18:24:40.835Z,5.35
2022-08-19T18:28:49.443Z,5.72
2022-08-19T18:32:54.106Z,7.05
2022-08-19T18:36:56.378Z,5.55
2022-08-19T18:41:18.221Z,5.65
2022-08-19T18:45:39.512Z,6.00
2022-08-19T18:49:46.098Z,5.68
2022-08-19T18:53:49.889Z,5.72
2022-08-19T18:57:51.997Z,5.28
2022-08-19T19:01:59.566Z,5.88
2022-08-19T19:06:01.934Z,5.45
2022-08-19T19:10:04.690Z,6.10
2022-08-19T19:14:23.225Z,5.40
2022-08-19T19:18:35.030Z,5.30
2022-08-19T19:22:37.206Z,4.78
2022-08-19T19:26:40.051Z,5.18
2022-08-19T19:30:42.232Z,4.72
2022-08-19T19:34:45.626Z,4.10
2022-08-19T19:38:48.858Z,5.32
2022-08-19T19:42:52.394Z,5.82
2022-08-19T19:46:55.989Z,5.35
2022-08-19T19:50:58.928Z,4.90
2022-08-19T19:55:04.749Z,5.68
2022-08-19T19:59:11.285Z,4.88
2022-08-19T20:03:20.550Z,5.07
2022-08-19T20:07:42.959Z,6.75
2022-08-19T20:11:57.699Z,5.32
2022-08-19T20:16:00.365Z,4.93
2022-08-19T20:20:02.602Z,6.03
2022-08-19T20:24:09.727Z,4.78
2022-08-19T20:28:12.718Z,4.90
2022-08-19T20:32:15.042Z,5.32
2022-08-19T20:36:17.424Z,5.88
2022-08-19T20:40:21.878Z,4.72
2022-08-19T20:44:25.580Z,5.38
2022-08-19T20:48:28.261Z,5.80
2022-08-19T20:52:30.456Z,5.25
2022-08-19T20:56:32.750Z,5.30
2022-08-19T21:00:34.953Z,5.57
2022-08-19T21:04:37.636Z,5.50
2022-08-19T21:08:40.475Z,6.22
2022-08-19T21:12:45.019Z,5.53
2022-08-19T21:16:47.223Z,6.25
2022-08-19T21:20:50.425Z,5.90
2022-08-19T21:24:52.665Z,5.78
2022-08-19T21:28:54.967Z,5.15
2022-08-19T21:33:01.225Z,5.97
2022-08-19T21:37:03.763Z,5.55
2022-08-19T21:41:07.467Z,5.05
2022-08-19T21:45:12.676Z,5.15
2022-08-19T21:49:14.862Z,5.10
2022-08-19T21:53:18.209Z,5.72
2022-08-19T21:57:20.377Z,4.90
2022-08-19T22:01:24.130Z,5.47
2022-08-19T22:05:26.485Z,5.43
2022-08-19T22:09:28.766Z,5.32
2022-08-19T22:13:39.995Z,4.90
2022-08-19T22:17:43.822Z,6.40
2022-08-19T22:21:45.803Z,6.10
2022-08-19T22:25:48.072Z,5.25
2022-08-19T22:29:52.602Z,5.50
2022-08-19T22:33:55.829Z,5.03
2022-08-19T22:37:59.119Z,5.55
2022-08-19T22:42:04.439Z,5.32
2022-08-19T22:46:15.069Z,5.43
2022-08-19T22:50:19.962Z,5.82
2022-08-19T22:54:22.109Z,5.20
2022-08-19T22:58:28.178Z,4.82
2022-08-19T23:02:38.563Z,5.28
2022-08-19T23:06:54.381Z,4.95
2022-08-19T23:10:56.846Z,5.35
2022-08-19T23:15:09.122Z,5.45
2022-08-19T23:19:12.415Z,5.32
2022-08-19T23:23:19.976Z,6.15
2022-08-19T23:27:40.882Z,5.15
2022-08-19T23:31:43.185Z,5.35
2022-08-19T23:35:45.385Z,5.60
2022-08-19T23:39:47.648Z,5.65
2022-08-19T23:43:51.432Z,5.35
2022-08-19T23:47:57.769Z,6.90
2022-08-19T23:52:00.100Z,5.50
2022-08-19T23:56:03.834Z,6.10
